sensor_id;sensor_type;location;lat;lon;timestamp;temperature;humidity
47616;DHT22;69146;52.266;7.000;2023-04-09T00:02:14;9.00;99.90
47616;DHT22;69146;52.266;7.000;2023-04-09T00:05:00;9.00;99.90
47616;DHT22;69146;52.266;7.000;2023-04-09T00:07:45;9.00;99.90
47616;DHT22;69146;52.266;7.000;2023-04-09T00:10:30;8.90;99.90
47616;DHT22;69146;52.266;7.000;2023-04-09T00:13:16;8.90;99.90
47616;DHT22;69146;52.266;7.000;2023-04-09T00:16:02;9.00;99.90
47616;DHT22;69146;52.266;7.000;2023-04-09T00:18:46;9.00;99.90
47616;DHT22;69146;52.266;7.000;2023-04-09T00:21:31;9.10;99.90
47616;DHT22;69146;52.266;7.000;2023-04-09T00:24:18;9.10;99.90
47616;DHT22;69146;52.266;7.000;2023-04-09T00:27:03;9.10;99.70
47616;DHT22;69146;52.266;7.000;2023-04-09T00:29:49;9.00;99.80
47616;DHT22;69146;52.266;7.000;2023-04-09T00:32:36;9.00;99.90
47616;DHT22;69146;52.266;7.000;2023-04-09T00:35:21;8.90;99.90
47616;DHT22;69146;52.266;7.000;2023-04-09T00:38:06;8.90;99.90
47616;DHT22;69146;52.266;7.000;2023-04-09T00:40:51;8.90;99.90
47616;DHT22;69146;52.266;7.000;2023-04-09T00:43:35;8.90;99.90
47616;DHT22;69146;52.266;7.000;2023-04-09T00:46:22;8.90;99.90
47616;DHT22;69146;52.266;7.000;2023-04-09T00:49:06;8.90;99.90
47616;DHT22;69146;52.266;7.000;2023-04-09T00:51:51;9.00;99.90
47616;DHT22;69146;52.266;7.000;2023-04-09T00:54:37;9.00;99.80
47616;DHT22;69146;52.266;7.000;2023-04-09T00:57:22;9.00;99.90
47616;DHT22;69146;52.266;7.000;2023-04-09T01:00:08;9.00;99.90
47616;DHT22;69146;52.266;7.000;2023-04-09T01:02:57;8.90;99.90
47616;DHT22;69146;52.266;7.000;2023-04-09T01:05:49;8.90;99.90
47616;DHT22;69146;52.266;7.000;2023-04-09T01:08:43;8.90;99.90
47616;DHT22;69146;52.266;7.000;2023-04-09T01:11:37;8.80;99.90
47616;DHT22;69146;52.266;7.000;2023-04-09T01:14:26;8.80;99.90
47616;DHT22;69146;52.266;7.000;2023-04-09T01:17:17;8.80;99.60
47616;DHT22;69146;52.266;7.000;2023-04-09T01:20:08;8.80;99.50
47616;DHT22;69146;52.266;7.000;2023-04-09T01:23:00;8.80;99.70
47616;DHT22;69146;52.266;7.000;2023-04-09T01:26:00;8.80;99.60
47616;DHT22;69146;52.266;7.000;2023-04-09T01:28:51;8.80;99.70
47616;DHT22;69146;52.266;7.000;2023-04-09T01:31:38;8.80;99.80
47616;DHT22;69146;52.266;7.000;2023-04-09T01:34:24;8.80;99.90
47616;DHT22;69146;52.266;7.000;2023-04-09T01:37:12;8.70;99.90
47616;DHT22;69146;52.266;7.000;2023-04-09T01:39:58;8.70;99.90
47616;DHT22;69146;52.266;7.000;2023-04-09T01:42:42;8.70;99.50
47616;DHT22;69146;52.266;7.000;2023-04-09T01:45:29;8.70;99.40
47616;DHT22;69146;52.266;7.000;2023-04-09T01:48:14;8.70;99.80
47616;DHT22;69146;52.266;7.000;2023-04-09T01:51:00;8.60;99.00
47616;DHT22;69146;52.266;7.000;2023-04-09T01:53:45;8.60;99.30
47616;DHT22;69146;52.266;7.000;2023-04-09T01:56:39;8.70;99.50
47616;DHT22;69146;52.266;7.000;2023-04-09T01:59:24;8.70;99.60
47616;DHT22;69146;52.266;7.000;2023-04-09T02:02:16;8.70;99.50
47616;DHT22;69146;52.266;7.000;2023-04-09T02:05:06;8.70;99.50
47616;DHT22;69146;52.266;7.000;2023-04-09T02:07:56;8.80;99.30
47616;DHT22;69146;52.266;7.000;2023-04-09T02:10:46;8.70;99.50
47616;DHT22;69146;52.266;7.000;2023-04-09T02:13:36;8.60;99.50
47616;DHT22;69146;52.266;7.000;2023-04-09T02:16:24;8.60;99.40
47616;DHT22;69146;52.266;7.000;2023-04-09T02:19:15;8.70;99.40
47616;DHT22;69146;52.266;7.000;2023-04-09T02:21:59;8.70;99.00
47616;DHT22;69146;52.266;7.000;2023-04-09T02:24:47;8.70;99.10
47616;DHT22;69146;52.266;7.000;2023-04-09T02:27:32;8.70;98.90
47616;DHT22;69146;52.266;7.000;2023-04-09T02:30:17;8.70;99.10
47616;DHT22;69146;52.266;7.000;2023-04-09T02:33:02;8.60;99.00
47616;DHT22;69146;52.266;7.000;2023-04-09T02:35:48;8.60;98.90
47616;DHT22;69146;52.266;7.000;2023-04-09T02:38:39;8.70;99.00
47616;DHT22;69146;52.266;7.000;2023-04-09T02:41:24;8.60;98.90
47616;DHT22;69146;52.266;7.000;2023-04-09T02:44:09;8.60;98.90
47616;DHT22;69146;52.266;7.000;2023-04-09T02:46:55;8.50;99.00
47616;DHT22;69146;52.266;7.000;2023-04-09T02:49:43;8.50;99.20
47616;DHT22;69146;52.266;7.000;2023-04-09T02:52:29;8.50;99.20
47616;DHT22;69146;52.266;7.000;2023-04-09T02:55:14;8.40;99.20
47616;DHT22;69146;52.266;7.000;2023-04-09T02:57:59;8.30;99.30
47616;DHT22;69146;52.266;7.000;2023-04-09T03:00:44;8.30;99.50
47616;DHT22;69146;52.266;7.000;2023-04-09T03:03:29;8.10;99.80
47616;DHT22;69146;52.266;7.000;2023-04-09T03:06:14;7.90;99.90
47616;DHT22;69146;52.266;7.000;2023-04-09T03:09:00;7.90;99.90
47616;DHT22;69146;52.266;7.000;2023-04-09T03:11:45;7.80;99.90
47616;DHT22;69146;52.266;7.000;2023-04-09T03:14:30;7.70;99.90
47616;DHT22;69146;52.266;7.000;2023-04-09T03:17:15;7.60;99.90
47616;DHT22;69146;52.266;7.000;2023-04-09T03:19:59;7.50;99.90
47616;DHT22;69146;52.266;7.000;2023-04-09T03:22:44;7.40;99.90
47616;DHT22;69146;52.266;7.000;2023-04-09T03:25:31;7.30;99.90
47616;DHT22;69146;52.266;7.000;2023-04-09T03:28:16;7.20;99.90
47616;DHT22;69146;52.266;7.000;2023-04-09T03:31:01;7.10;99.90
47616;DHT22;69146;52.266;7.000;2023-04-09T03:33:46;7.00;99.90
47616;DHT22;69146;52.266;7.000;2023-04-09T03:36:31;6.90;99.90
47616;DHT22;69146;52.266;7.000;2023-04-09T03:39:16;6.90;99.90
47616;DHT22;69146;52.266;7.000;2023-04-09T03:42:02;6.80;99.90
47616;DHT22;69146;52.266;7.000;2023-04-09T03:44:46;6.70;99.90
47616;DHT22;69146;52.266;7.000;2023-04-09T03:47:32;6.70;99.90
47616;DHT22;69146;52.266;7.000;2023-04-09T03:50:16;6.60;99.90
47616;DHT22;69146;52.266;7.000;2023-04-09T03:53:01;6.50;99.90
47616;DHT22;69146;52.266;7.000;2023-04-09T03:55:46;6.50;99.90
47616;DHT22;69146;52.266;7.000;2023-04-09T03:58:32;6.40;99.90
47616;DHT22;69146;52.266;7.000;2023-04-09T04:01:17;6.40;99.90
47616;DHT22;69146;52.266;7.000;2023-04-09T04:04:02;6.30;99.90
47616;DHT22;69146;52.266;7.000;2023-04-09T04:06:46;6.30;99.90
47616;DHT22;69146;52.266;7.000;2023-04-09T04:09:31;6.30;99.90
47616;DHT22;69146;52.266;7.000;2023-04-09T04:12:16;6.30;99.90
47616;DHT22;69146;52.266;7.000;2023-04-09T04:15:03;6.30;99.90
47616;DHT22;69146;52.266;7.000;2023-04-09T04:17:47;6.20;99.90
47616;DHT22;69146;52.266;7.000;2023-04-09T04:20:32;6.10;99.90
47616;DHT22;69146;52.266;7.000;2023-04-09T04:23:17;6.10;99.90
47616;DHT22;69146;52.266;7.000;2023-04-09T04:26:06;6.10;99.90
47616;DHT22;69146;52.266;7.000;2023-04-09T04:28:53;6.00;99.90
47616;DHT22;69146;52.266;7.000;2023-04-09T04:31:39;6.00;99.90
47616;DHT22;69146;52.266;7.000;2023-04-09T04:34:27;6.00;99.90
47616;DHT22;69146;52.266;7.000;2023-04-09T04:37:13;6.00;99.90
47616;DHT22;69146;52.266;7.000;2023-04-09T04:40:00;5.90;99.90
47616;DHT22;69146;52.266;7.000;2023-04-09T04:42:44;5.90;99.90
47616;DHT22;69146;52.266;7.000;2023-04-09T04:45:29;5.80;99.90
47616;DHT22;69146;52.266;7.000;2023-04-09T04:48:15;5.80;99.90
47616;DHT22;69146;52.266;7.000;2023-04-09T04:51:01;5.70;99.90
47616;DHT22;69146;52.266;7.000;2023-04-09T04:53:46;5.70;99.90
47616;DHT22;69146;52.266;7.000;2023-04-09T04:56:31;5.70;99.90
47616;DHT22;69146;52.266;7.000;2023-04-09T04:59:16;5.70;99.90
47616;DHT22;69146;52.266;7.000;2023-04-09T05:02:04;5.70;99.90
47616;DHT22;69146;52.266;7.000;2023-04-09T05:04:50;5.70;99.90
47616;DHT22;69146;52.266;7.000;2023-04-09T05:07:35;5.70;99.90
47616;DHT22;69146;52.266;7.000;2023-04-09T05:10:20;5.60;99.90
47616;DHT22;69146;52.266;7.000;2023-04-09T05:13:05;5.60;99.90
47616;DHT22;69146;52.266;7.000;2023-04-09T05:15:50;5.50;99.90
47616;DHT22;69146;52.266;7.000;2023-04-09T05:18:35;5.40;99.90
47616;DHT22;69146;52.266;7.000;2023-04-09T05:21:21;5.50;99.90
47616;DHT22;69146;52.266;7.000;2023-04-09T05:24:06;5.40;99.90
47616;DHT22;69146;52.266;7.000;2023-04-09T05:26:51;5.40;99.90
47616;DHT22;69146;52.266;7.000;2023-04-09T05:29:36;5.50;99.90
47616;DHT22;69146;52.266;7.000;2023-04-09T05:32:21;5.40;99.90
47616;DHT22;69146;52.266;7.000;2023-04-09T05:35:07;5.50;99.90
47616;DHT22;69146;52.266;7.000;2023-04-09T05:37:53;5.50;99.90
47616;DHT22;69146;52.266;7.000;2023-04-09T05:40:39;5.50;99.90
47616;DHT22;69146;52.266;7.000;2023-04-09T05:43:23;5.50;99.90
47616;DHT22;69146;52.266;7.000;2023-04-09T05:46:08;5.60;99.90
47616;DHT22;69146;52.266;7.000;2023-04-09T05:48:53;5.60;99.90
47616;DHT22;69146;52.266;7.000;2023-04-09T05:51:44;5.70;99.90
47616;DHT22;69146;52.266;7.000;2023-04-09T05:54:36;5.60;99.90
47616;DHT22;69146;52.266;7.000;2023-04-09T05:57:21;5.70;99.90
47616;DHT22;69146;52.266;7.000;2023-04-09T06:00:11;5.80;99.90
47616;DHT22;69146;52.266;7.000;2023-04-09T06:02:56;5.80;99.90
47616;DHT22;69146;52.266;7.000;2023-04-09T06:05:42;5.90;99.90
47616;DHT22;69146;52.266;7.000;2023-04-09T06:08:28;5.90;99.90
47616;DHT22;69146;52.266;7.000;2023-04-09T06:11:14;6.00;99.90
47616;DHT22;69146;52.266;7.000;2023-04-09T06:13:59;6.10;99.90
47616;DHT22;69146;52.266;7.000;2023-04-09T06:16:44;6.20;99.90
47616;DHT22;69146;52.266;7.000;2023-04-09T06:19:30;6.30;99.90
47616;DHT22;69146;52.266;7.000;2023-04-09T06:22:17;6.40;99.90
47616;DHT22;69146;52.266;7.000;2023-04-09T06:25:04;6.50;99.90
47616;DHT22;69146;52.266;7.000;2023-04-09T06:27:51;6.50;99.90
47616;DHT22;69146;52.266;7.000;2023-04-09T06:30:36;6.50;99.90
47616;DHT22;69146;52.266;7.000;2023-04-09T06:33:21;6.60;99.90
47616;DHT22;69146;52.266;7.000;2023-04-09T06:36:06;6.70;99.90
47616;DHT22;69146;52.266;7.000;2023-04-09T06:38:52;6.80;99.90
47616;DHT22;69146;52.266;7.000;2023-04-09T06:41:37;6.90;99.90
47616;DHT22;69146;52.266;7.000;2023-04-09T06:44:23;7.00;99.90
47616;DHT22;69146;52.266;7.000;2023-04-09T06:47:08;7.10;99.90
47616;DHT22;69146;52.266;7.000;2023-04-09T06:49:53;7.10;99.90
47616;DHT22;69146;52.266;7.000;2023-04-09T06:52:38;7.10;99.90
47616;DHT22;69146;52.266;7.000;2023-04-09T06:55:23;7.20;99.90
47616;DHT22;69146;52.266;7.000;2023-04-09T06:58:08;7.40;99.90
47616;DHT22;69146;52.266;7.000;2023-04-09T07:00:54;7.50;99.90
47616;DHT22;69146;52.266;7.000;2023-04-09T07:03:39;7.60;99.90
47616;DHT22;69146;52.266;7.000;2023-04-09T07:06:24;7.70;99.90
47616;DHT22;69146;52.266;7.000;2023-04-09T07:09:10;7.80;99.90
47616;DHT22;69146;52.266;7.000;2023-04-09T07:11:55;7.90;99.90
47616;DHT22;69146;52.266;7.000;2023-04-09T07:14:39;8.00;99.90
47616;DHT22;69146;52.266;7.000;2023-04-09T07:17:26;8.10;99.90
47616;DHT22;69146;52.266;7.000;2023-04-09T07:20:15;8.20;99.90
47616;DHT22;69146;52.266;7.000;2023-04-09T07:23:00;8.30;99.90
47616;DHT22;69146;52.266;7.000;2023-04-09T07:25:52;8.50;99.90
47616;DHT22;69146;52.266;7.000;2023-04-09T07:28:37;8.50;99.50
47616;DHT22;69146;52.266;7.000;2023-04-09T07:31:22;8.70;99.80
47616;DHT22;69146;52.266;7.000;2023-04-09T07:34:08;8.80;99.60
47616;DHT22;69146;52.266;7.000;2023-04-09T07:36:53;8.90;99.60
47616;DHT22;69146;52.266;7.000;2023-04-09T07:39:38;9.10;99.00
47616;DHT22;69146;52.266;7.000;2023-04-09T07:42:23;9.20;98.70
47616;DHT22;69146;52.266;7.000;2023-04-09T07:45:09;9.20;98.40
47616;DHT22;69146;52.266;7.000;2023-04-09T07:47:54;9.20;98.60
47616;DHT22;69146;52.266;7.000;2023-04-09T07:50:43;9.40;98.90
47616;DHT22;69146;52.266;7.000;2023-04-09T07:53:32;9.50;97.90
47616;DHT22;69146;52.266;7.000;2023-04-09T07:56:17;9.60;98.00
47616;DHT22;69146;52.266;7.000;2023-04-09T07:59:02;9.80;98.00
47616;DHT22;69146;52.266;7.000;2023-04-09T08:01:47;9.90;97.40
47616;DHT22;69146;52.266;7.000;2023-04-09T08:04:35;10.00;97.50
47616;DHT22;69146;52.266;7.000;2023-04-09T08:07:21;10.20;97.20
47616;DHT22;69146;52.266;7.000;2023-04-09T08:10:07;10.30;97.00
47616;DHT22;69146;52.266;7.000;2023-04-09T08:12:51;10.40;96.70
47616;DHT22;69146;52.266;7.000;2023-04-09T08:15:36;10.60;96.70
47616;DHT22;69146;52.266;7.000;2023-04-09T08:18:21;10.70;96.00
47616;DHT22;69146;52.266;7.000;2023-04-09T08:21:06;10.70;95.80
47616;DHT22;69146;52.266;7.000;2023-04-09T08:23:52;10.80;95.20
47616;DHT22;69146;52.266;7.000;2023-04-09T08:26:38;11.00;95.30
47616;DHT22;69146;52.266;7.000;2023-04-09T08:29:22;11.10;95.40
47616;DHT22;69146;52.266;7.000;2023-04-09T08:32:07;11.30;94.70
47616;DHT22;69146;52.266;7.000;2023-04-09T08:34:52;11.50;94.60
47616;DHT22;69146;52.266;7.000;2023-04-09T08:37:37;11.60;94.50
47616;DHT22;69146;52.266;7.000;2023-04-09T08:40:24;11.80;94.50
47616;DHT22;69146;52.266;7.000;2023-04-09T08:43:14;12.00;94.00
47616;DHT22;69146;52.266;7.000;2023-04-09T08:46:00;12.10;92.90
47616;DHT22;69146;52.266;7.000;2023-04-09T08:48:47;12.30;92.80
47616;DHT22;69146;52.266;7.000;2023-04-09T08:51:32;12.20;92.50
47616;DHT22;69146;52.266;7.000;2023-04-09T08:54:17;12.20;92.90
47616;DHT22;69146;52.266;7.000;2023-04-09T08:57:05;12.40;92.30
47616;DHT22;69146;52.266;7.000;2023-04-09T08:59:50;12.60;92.10
47616;DHT22;69146;52.266;7.000;2023-04-09T09:02:35;12.80;91.30
47616;DHT22;69146;52.266;7.000;2023-04-09T09:05:34;12.90;91.40
47616;DHT22;69146;52.266;7.000;2023-04-09T09:08:22;13.00;90.80
47616;DHT22;69146;52.266;7.000;2023-04-09T09:11:08;13.20;89.00
47616;DHT22;69146;52.266;7.000;2023-04-09T09:13:59;13.30;88.60
47616;DHT22;69146;52.266;7.000;2023-04-09T09:17:02;13.50;85.20
47616;DHT22;69146;52.266;7.000;2023-04-09T09:19:47;13.40;85.90
47616;DHT22;69146;52.266;7.000;2023-04-09T09:22:48;13.50;85.10
47616;DHT22;69146;52.266;7.000;2023-04-09T09:25:37;13.50;84.40
47616;DHT22;69146;52.266;7.000;2023-04-09T09:28:22;13.70;84.80
47616;DHT22;69146;52.266;7.000;2023-04-09T09:31:09;13.90;82.80
47616;DHT22;69146;52.266;7.000;2023-04-09T09:33:55;14.00;83.30
47616;DHT22;69146;52.266;7.000;2023-04-09T09:36:40;14.10;82.60
47616;DHT22;69146;52.266;7.000;2023-04-09T09:39:41;14.10;81.20
47616;DHT22;69146;52.266;7.000;2023-04-09T09:42:27;14.20;80.90
47616;DHT22;69146;52.266;7.000;2023-04-09T09:45:17;14.30;80.60
47616;DHT22;69146;52.266;7.000;2023-04-09T09:48:04;14.30;80.20
47616;DHT22;69146;52.266;7.000;2023-04-09T09:50:50;14.40;79.70
47616;DHT22;69146;52.266;7.000;2023-04-09T09:53:36;14.60;80.20
47616;DHT22;69146;52.266;7.000;2023-04-09T09:56:22;14.70;79.30
47616;DHT22;69146;52.266;7.000;2023-04-09T09:59:14;14.70;79.20
47616;DHT22;69146;52.266;7.000;2023-04-09T10:02:04;14.80;78.30
47616;DHT22;69146;52.266;7.000;2023-04-09T10:04:51;14.90;78.80
47616;DHT22;69146;52.266;7.000;2023-04-09T10:07:39;15.10;79.40
47616;DHT22;69146;52.266;7.000;2023-04-09T10:10:25;15.40;79.90
47616;DHT22;69146;52.266;7.000;2023-04-09T10:13:15;15.50;77.80
47616;DHT22;69146;52.266;7.000;2023-04-09T10:16:03;15.60;78.60
47616;DHT22;69146;52.266;7.000;2023-04-09T10:18:48;15.50;76.30
47616;DHT22;69146;52.266;7.000;2023-04-09T10:21:38;15.30;77.90
47616;DHT22;69146;52.266;7.000;2023-04-09T10:24:24;15.30;76.90
47616;DHT22;69146;52.266;7.000;2023-04-09T10:27:10;15.40;76.80
47616;DHT22;69146;52.266;7.000;2023-04-09T10:29:55;15.60;77.10
47616;DHT22;69146;52.266;7.000;2023-04-09T10:32:40;15.80;75.40
47616;DHT22;69146;52.266;7.000;2023-04-09T10:35:26;16.00;76.10
47616;DHT22;69146;52.266;7.000;2023-04-09T10:38:13;16.20;74.40
47616;DHT22;69146;52.266;7.000;2023-04-09T10:40:58;16.30;74.10
47616;DHT22;69146;52.266;7.000;2023-04-09T10:43:49;16.30;72.70
47616;DHT22;69146;52.266;7.000;2023-04-09T10:46:36;16.30;72.20
47616;DHT22;69146;52.266;7.000;2023-04-09T10:49:24;16.40;71.40
47616;DHT22;69146;52.266;7.000;2023-04-09T10:52:10;16.40;71.30
47616;DHT22;69146;52.266;7.000;2023-04-09T10:54:57;16.20;71.00
47616;DHT22;69146;52.266;7.000;2023-04-09T10:57:42;16.10;72.10
47616;DHT22;69146;52.266;7.000;2023-04-09T11:00:26;16.30;71.70
47616;DHT22;69146;52.266;7.000;2023-04-09T11:03:23;16.50;71.50
47616;DHT22;69146;52.266;7.000;2023-04-09T11:06:10;16.50;71.00
47616;DHT22;69146;52.266;7.000;2023-04-09T11:09:00;16.60;70.40
47616;DHT22;69146;52.266;7.000;2023-04-09T11:11:52;16.60;70.40
47616;DHT22;69146;52.266;7.000;2023-04-09T11:14:37;16.50;70.00
47616;DHT22;69146;52.266;7.000;2023-04-09T11:17:22;16.50;71.00
47616;DHT22;69146;52.266;7.000;2023-04-09T11:20:07;16.40;71.60
47616;DHT22;69146;52.266;7.000;2023-04-09T11:22:54;16.30;70.20
47616;DHT22;69146;52.266;7.000;2023-04-09T11:25:39;16.20;71.90
47616;DHT22;69146;52.266;7.000;2023-04-09T11:28:25;16.20;72.70
47616;DHT22;69146;52.266;7.000;2023-04-09T11:31:10;16.40;72.50
47616;DHT22;69146;52.266;7.000;2023-04-09T11:33:55;16.60;71.90
47616;DHT22;69146;52.266;7.000;2023-04-09T11:36:40;16.60;70.60
47616;DHT22;69146;52.266;7.000;2023-04-09T11:39:25;16.50;70.90
47616;DHT22;69146;52.266;7.000;2023-04-09T11:42:16;16.60;71.10
47616;DHT22;69146;52.266;7.000;2023-04-09T11:45:02;16.70;70.50
47616;DHT22;69146;52.266;7.000;2023-04-09T11:47:48;16.80;71.00
47616;DHT22;69146;52.266;7.000;2023-04-09T11:50:37;17.10;69.60
47616;DHT22;69146;52.266;7.000;2023-04-09T11:53:22;16.90;71.00
47616;DHT22;69146;52.266;7.000;2023-04-09T11:56:07;16.90;69.90
47616;DHT22;69146;52.266;7.000;2023-04-09T11:58:53;17.00;71.30
47616;DHT22;69146;52.266;7.000;2023-04-09T12:01:47;17.40;68.90
47616;DHT22;69146;52.266;7.000;2023-04-09T12:04:32;17.30;68.60
47616;DHT22;69146;52.266;7.000;2023-04-09T12:07:16;16.90;69.20
47616;DHT22;69146;52.266;7.000;2023-04-09T12:10:05;16.60;70.80
47616;DHT22;69146;52.266;7.000;2023-04-09T12:12:50;16.50;71.40
47616;DHT22;69146;52.266;7.000;2023-04-09T12:15:37;16.50;72.40
47616;DHT22;69146;52.266;7.000;2023-04-09T12:18:23;16.80;72.20
47616;DHT22;69146;52.266;7.000;2023-04-09T12:21:09;17.20;71.90
47616;DHT22;69146;52.266;7.000;2023-04-09T12:23:54;17.60;71.80
47616;DHT22;69146;52.266;7.000;2023-04-09T12:26:39;17.80;69.50
47616;DHT22;69146;52.266;7.000;2023-04-09T12:29:24;17.80;69.20
47616;DHT22;69146;52.266;7.000;2023-04-09T12:32:11;17.60;68.80
47616;DHT22;69146;52.266;7.000;2023-04-09T12:34:57;17.20;71.10
47616;DHT22;69146;52.266;7.000;2023-04-09T12:37:44;17.30;71.10
47616;DHT22;69146;52.266;7.000;2023-04-09T12:40:29;16.90;70.40
47616;DHT22;69146;52.266;7.000;2023-04-09T12:43:14;16.80;70.30
47616;DHT22;69146;52.266;7.000;2023-04-09T12:45:59;17.10;71.90
47616;DHT22;69146;52.266;7.000;2023-04-09T12:48:44;17.00;70.10
47616;DHT22;69146;52.266;7.000;2023-04-09T12:51:31;17.10;71.70
47616;DHT22;69146;52.266;7.000;2023-04-09T12:54:17;17.00;70.50
47616;DHT22;69146;52.266;7.000;2023-04-09T12:57:02;16.80;70.40
47616;DHT22;69146;52.266;7.000;2023-04-09T12:59:47;16.70;70.90
47616;DHT22;69146;52.266;7.000;2023-04-09T13:02:32;16.30;70.90
47616;DHT22;69146;52.266;7.000;2023-04-09T13:05:17;16.50;72.20
47616;DHT22;69146;52.266;7.000;2023-04-09T13:08:03;16.90;70.30
47616;DHT22;69146;52.266;7.000;2023-04-09T13:10:48;17.00;70.10
47616;DHT22;69146;52.266;7.000;2023-04-09T13:13:34;17.00;70.40
47616;DHT22;69146;52.266;7.000;2023-04-09T13:16:18;17.40;69.90
47616;DHT22;69146;52.266;7.000;2023-04-09T13:19:03;17.70;69.60
47616;DHT22;69146;52.266;7.000;2023-04-09T13:21:48;17.80;69.40
47616;DHT22;69146;52.266;7.000;2023-04-09T13:24:34;17.80;68.00
47616;DHT22;69146;52.266;7.000;2023-04-09T13:27:19;17.70;68.40
47616;DHT22;69146;52.266;7.000;2023-04-09T13:30:05;17.50;69.80
47616;DHT22;69146;52.266;7.000;2023-04-09T13:32:54;17.40;69.60
47616;DHT22;69146;52.266;7.000;2023-04-09T13:35:39;17.60;70.40
47616;DHT22;69146;52.266;7.000;2023-04-09T13:38:24;18.80;68.40
47616;DHT22;69146;52.266;7.000;2023-04-09T13:41:14;19.80;65.90
47616;DHT22;69146;52.266;7.000;2023-04-09T13:43:59;20.20;64.60
47616;DHT22;69146;52.266;7.000;2023-04-09T13:46:44;20.30;63.90
47616;DHT22;69146;52.266;7.000;2023-04-09T13:49:29;20.20;64.00
47616;DHT22;69146;52.266;7.000;2023-04-09T13:52:14;20.00;64.40
47616;DHT22;69146;52.266;7.000;2023-04-09T13:54:59;19.60;65.20
47616;DHT22;69146;52.266;7.000;2023-04-09T13:57:45;19.50;65.20
47616;DHT22;69146;52.266;7.000;2023-04-09T14:00:31;19.40;65.00
47616;DHT22;69146;52.266;7.000;2023-04-09T14:03:15;18.70;66.30
47616;DHT22;69146;52.266;7.000;2023-04-09T14:06:00;18.20;67.30
47616;DHT22;69146;52.266;7.000;2023-04-09T14:08:46;17.40;68.60
47616;DHT22;69146;52.266;7.000;2023-04-09T14:11:31;17.50;69.10
47616;DHT22;69146;52.266;7.000;2023-04-09T14:14:17;18.40;68.00
47616;DHT22;69146;52.266;7.000;2023-04-09T14:17:03;19.30;66.40
47616;DHT22;69146;52.266;7.000;2023-04-09T14:19:48;20.10;64.80
47616;DHT22;69146;52.266;7.000;2023-04-09T14:22:32;20.70;64.90
47616;DHT22;69146;52.266;7.000;2023-04-09T14:25:17;21.00;64.60
47616;DHT22;69146;52.266;7.000;2023-04-09T14:28:03;21.50;63.00
47616;DHT22;69146;52.266;7.000;2023-04-09T14:30:48;21.60;62.40
47616;DHT22;69146;52.266;7.000;2023-04-09T14:33:33;21.60;62.40
47616;DHT22;69146;52.266;7.000;2023-04-09T14:36:18;21.20;62.30
47616;DHT22;69146;52.266;7.000;2023-04-09T14:39:03;20.80;64.30
47616;DHT22;69146;52.266;7.000;2023-04-09T14:41:47;20.10;63.90
47616;DHT22;69146;52.266;7.000;2023-04-09T14:44:32;19.30;65.10
47616;DHT22;69146;52.266;7.000;2023-04-09T14:47:19;18.60;64.40
47616;DHT22;69146;52.266;7.000;2023-04-09T14:50:04;18.70;65.40
47616;DHT22;69146;52.266;7.000;2023-04-09T14:52:49;19.50;64.80
47616;DHT22;69146;52.266;7.000;2023-04-09T14:55:34;20.40;62.80
47616;DHT22;69146;52.266;7.000;2023-04-09T14:58:19;21.00;62.00
47616;DHT22;69146;52.266;7.000;2023-04-09T15:01:04;21.30;61.80
47616;DHT22;69146;52.266;7.000;2023-04-09T15:03:50;20.70;61.80
47616;DHT22;69146;52.266;7.000;2023-04-09T15:06:35;19.90;61.80
47616;DHT22;69146;52.266;7.000;2023-04-09T15:09:19;19.60;62.80
47616;DHT22;69146;52.266;7.000;2023-04-09T15:12:04;20.00;63.40
47616;DHT22;69146;52.266;7.000;2023-04-09T15:14:49;20.50;62.60
47616;DHT22;69146;52.266;7.000;2023-04-09T15:17:34;20.70;62.00
47616;DHT22;69146;52.266;7.000;2023-04-09T15:20:21;20.50;62.40
47616;DHT22;69146;52.266;7.000;2023-04-09T15:23:06;19.80;63.40
47616;DHT22;69146;52.266;7.000;2023-04-09T15:25:51;19.30;63.80
47616;DHT22;69146;52.266;7.000;2023-04-09T15:28:39;20.00;64.30
47616;DHT22;69146;52.266;7.000;2023-04-09T15:31:24;20.70;62.80
47616;DHT22;69146;52.266;7.000;2023-04-09T15:34:09;20.40;62.10
47616;DHT22;69146;52.266;7.000;2023-04-09T15:36:55;19.60;62.90
47616;DHT22;69146;52.266;7.000;2023-04-09T15:39:43;18.70;64.20
47616;DHT22;69146;52.266;7.000;2023-04-09T15:42:29;18.00;65.30
47616;DHT22;69146;52.266;7.000;2023-04-09T15:45:14;17.70;66.20
47616;DHT22;69146;52.266;7.000;2023-04-09T15:47:59;17.20;66.80
47616;DHT22;69146;52.266;7.000;2023-04-09T15:50:47;17.10;68.80
47616;DHT22;69146;52.266;7.000;2023-04-09T15:53:33;16.90;69.00
47616;DHT22;69146;52.266;7.000;2023-04-09T15:56:18;16.80;67.90
47616;DHT22;69146;52.266;7.000;2023-04-09T15:59:05;16.70;67.70
47616;DHT22;69146;52.266;7.000;2023-04-09T16:01:51;16.60;68.60
47616;DHT22;69146;52.266;7.000;2023-04-09T16:04:36;16.50;68.00
47616;DHT22;69146;52.266;7.000;2023-04-09T16:07:21;16.40;68.90
47616;DHT22;69146;52.266;7.000;2023-04-09T16:10:08;16.20;69.10
47616;DHT22;69146;52.266;7.000;2023-04-09T16:12:59;16.20;69.20
47616;DHT22;69146;52.266;7.000;2023-04-09T16:15:44;16.10;69.60
47616;DHT22;69146;52.266;7.000;2023-04-09T16:18:30;15.90;68.90
47616;DHT22;69146;52.266;7.000;2023-04-09T16:21:14;15.90;69.70
47616;DHT22;69146;52.266;7.000;2023-04-09T16:23:59;15.70;70.00
47616;DHT22;69146;52.266;7.000;2023-04-09T16:26:46;15.60;71.30
47616;DHT22;69146;52.266;7.000;2023-04-09T16:29:30;15.60;71.50
47616;DHT22;69146;52.266;7.000;2023-04-09T16:32:15;15.60;70.50
47616;DHT22;69146;52.266;7.000;2023-04-09T16:35:01;15.50;70.50
47616;DHT22;69146;52.266;7.000;2023-04-09T16:37:46;15.50;70.60
47616;DHT22;69146;52.266;7.000;2023-04-09T16:40:30;15.30;70.40
47616;DHT22;69146;52.266;7.000;2023-04-09T16:43:17;15.00;70.80
47616;DHT22;69146;52.266;7.000;2023-04-09T16:46:02;14.90;71.50
47616;DHT22;69146;52.266;7.000;2023-04-09T16:48:50;14.80;72.20
47616;DHT22;69146;52.266;7.000;2023-04-09T16:51:35;14.90;72.40
47616;DHT22;69146;52.266;7.000;2023-04-09T16:54:20;14.80;72.10
47616;DHT22;69146;52.266;7.000;2023-04-09T16:57:05;14.80;72.50
47616;DHT22;69146;52.266;7.000;2023-04-09T16:59:52;14.70;72.90
47616;DHT22;69146;52.266;7.000;2023-04-09T17:02:36;14.60;72.50
47616;DHT22;69146;52.266;7.000;2023-04-09T17:05:22;14.60;72.80
47616;DHT22;69146;52.266;7.000;2023-04-09T17:08:07;14.70;72.80
47616;DHT22;69146;52.266;7.000;2023-04-09T17:10:52;14.60;72.70
47616;DHT22;69146;52.266;7.000;2023-04-09T17:13:45;14.60;72.40
47616;DHT22;69146;52.266;7.000;2023-04-09T17:16:31;14.50;72.80
47616;DHT22;69146;52.266;7.000;2023-04-09T17:19:17;14.50;72.80
47616;DHT22;69146;52.266;7.000;2023-04-09T17:22:02;14.40;73.40
47616;DHT22;69146;52.266;7.000;2023-04-09T17:24:47;14.30;73.40
47616;DHT22;69146;52.266;7.000;2023-04-09T17:27:31;14.20;73.60
47616;DHT22;69146;52.266;7.000;2023-04-09T17:30:16;14.20;74.10
47616;DHT22;69146;52.266;7.000;2023-04-09T17:33:02;14.10;73.80
47616;DHT22;69146;52.266;7.000;2023-04-09T17:35:47;14.00;74.10
47616;DHT22;69146;52.266;7.000;2023-04-09T17:38:32;14.00;74.30